sensor_id;sensor_type;location;lat;lon;timestamp;pressure;altitude;pressure_sealevel;temperature;humidity
68380;BME280;57711;53.196;19.638;2023-01-04T00:01:14;101284.22;;;3.59;65.68
68380;BME280;57711;53.196;19.638;2023-01-04T00:03:42;101284.59;;;3.55;65.65
68380;BME280;57711;53.196;19.638;2023-01-04T00:06:12;101288.65;;;3.52;65.75
68380;BME280;57711;53.196;19.638;2023-01-04T00:08:40;101288.11;;;3.44;65.65
68380;BME280;57711;53.196;19.638;2023-01-04T00:11:14;101289.44;;;3.42;65.91
68380;BME280;57711;53.196;19.638;2023-01-04T00:13:41;101291.86;;;3.44;65.94
68380;BME280;57711;53.196;19.638;2023-01-04T00:16:17;101294.23;;;3.43;65.92
68380;BME280;57711;53.196;19.638;2023-01-04T00:18:45;101293.38;;;3.42;65.88
68380;BME280;57711;53.196;19.638;2023-01-04T00:21:18;101296.98;;;3.41;65.95
68380;BME280;57711;53.196;19.638;2023-01-04T00:23:48;101289.95;;;3.43;66.04
68380;BME280;57711;53.196;19.638;2023-01-04T00:26:23;101283.92;;;3.45;66.13
68380;BME280;57711;53.196;19.638;2023-01-04T00:29:00;101283.98;;;3.48;65.94
68380;BME280;57711;53.196;19.638;2023-01-04T00:31:28;101282.27;;;3.51;65.92
68380;BME280;57711;53.196;19.638;2023-01-04T00:33:58;101287.23;;;3.52;65.93
68380;BME280;57711;53.196;19.638;2023-01-04T00:36:26;101293.23;;;3.49;65.83
68380;BME280;57711;53.196;19.638;2023-01-04T00:38:54;101295.84;;;3.47;65.90
68380;BME280;57711;53.196;19.638;2023-01-04T00:41:51;101294.06;;;3.47;65.83
68380;BME280;57711;53.196;19.638;2023-01-04T00:44:28;101291.70;;;3.44;65.82
68380;BME280;57711;53.196;19.638;2023-01-04T00:46:57;101291.27;;;3.41;65.86
68380;BME280;57711;53.196;19.638;2023-01-04T00:49:24;101297.06;;;3.35;65.89
68380;BME280;57711;53.196;19.638;2023-01-04T00:51:52;101303.17;;;3.30;65.92
68380;BME280;57711;53.196;19.638;2023-01-04T00:54:19;101305.68;;;3.26;65.93
68380;BME280;57711;53.196;19.638;2023-01-04T00:56:47;101313.80;;;3.24;65.90
68380;BME280;57711;53.196;19.638;2023-01-04T00:59:18;101317.42;;;3.23;65.94
68380;BME280;57711;53.196;19.638;2023-01-04T01:01:46;101321.87;;;3.23;65.78
68380;BME280;57711;53.196;19.638;2023-01-04T01:04:16;101324.02;;;3.23;65.92
68380;BME280;57711;53.196;19.638;2023-01-04T01:06:45;101323.38;;;3.26;65.96
68380;BME280;57711;53.196;19.638;2023-01-04T01:09:12;101330.61;;;3.28;65.83
68380;BME280;57711;53.196;19.638;2023-01-04T01:11:40;101326.67;;;3.28;66.00
68380;BME280;57711;53.196;19.638;2023-01-04T01:14:13;101325.26;;;3.32;66.07
68380;BME280;57711;53.196;19.638;2023-01-04T01:16:41;101320.60;;;3.32;66.04
68380;BME280;57711;53.196;19.638;2023-01-04T01:19:27;101310.83;;;3.31;65.97
68380;BME280;57711;53.196;19.638;2023-01-04T01:21:55;101310.70;;;3.30;66.12
68380;BME280;57711;53.196;19.638;2023-01-04T01:24:24;101309.20;;;3.27;65.94
68380;BME280;57711;53.196;19.638;2023-01-04T01:26:51;101303.61;;;3.24;66.00
68380;BME280;57711;53.196;19.638;2023-01-04T01:29:19;101305.42;;;3.19;65.98
68380;BME280;57711;53.196;19.638;2023-01-04T01:31:46;101304.86;;;3.15;65.92
68380;BME280;57711;53.196;19.638;2023-01-04T01:34:13;101306.64;;;3.15;65.91
68380;BME280;57711;53.196;19.638;2023-01-04T01:36:41;101304.52;;;3.14;65.85
68380;BME280;57711;53.196;19.638;2023-01-04T01:39:08;101305.91;;;3.16;65.88
68380;BME280;57711;53.196;19.638;2023-01-04T01:41:35;101301.43;;;3.16;65.97
68380;BME280;57711;53.196;19.638;2023-01-04T01:49:22;101294.86;;;3.15;65.99
68380;BME280;57711;53.196;19.638;2023-01-04T01:51:51;101289.36;;;3.10;66.05
68380;BME280;57711;53.196;19.638;2023-01-04T01:54:25;101283.55;;;3.12;66.02
68380;BME280;57711;53.196;19.638;2023-01-04T01:56:57;101280.52;;;3.12;65.97
68380;BME280;57711;53.196;19.638;2023-01-04T01:59:26;101275.06;;;3.10;66.08
68380;BME280;57711;53.196;19.638;2023-01-04T02:01:54;101275.77;;;3.10;66.10
68380;BME280;57711;53.196;19.638;2023-01-04T02:04:21;101273.47;;;3.10;66.20
68380;BME280;57711;53.196;19.638;2023-01-04T02:06:52;101271.77;;;3.12;66.02
68380;BME280;57711;53.196;19.638;2023-01-04T02:09:21;101269.00;;;3.10;65.97
68380;BME280;57711;53.196;19.638;2023-01-04T02:11:49;101260.20;;;3.07;65.87
68380;BME280;57711;53.196;19.638;2023-01-04T02:14:17;101258.63;;;3.06;65.89
68380;BME280;57711;53.196;19.638;2023-01-04T02:22:56;101264.30;;;3.02;65.93
68380;BME280;57711;53.196;19.638;2023-01-04T02:36:53;101251.95;;;2.81;65.94
68380;BME280;57711;53.196;19.638;2023-01-04T02:42:19;101245.52;;;2.77;65.92
68380;BME280;57711;53.196;19.638;2023-01-04T02:45:12;101246.61;;;2.81;65.93
68380;BME280;57711;53.196;19.638;2023-01-04T02:47:41;101244.85;;;2.84;65.87
68380;BME280;57711;53.196;19.638;2023-01-04T02:50:39;101237.17;;;2.88;66.01
68380;BME280;57711;53.196;19.638;2023-01-04T02:53:13;101233.50;;;2.91;66.08
68380;BME280;57711;53.196;19.638;2023-01-04T02:55:50;101229.52;;;2.92;66.01
68380;BME280;57711;53.196;19.638;2023-01-04T02:58:52;101227.33;;;2.93;66.10
68380;BME280;57711;53.196;19.638;2023-01-04T03:01:29;101226.70;;;2.92;65.90
68380;BME280;57711;53.196;19.638;2023-01-04T03:07:34;101228.89;;;2.86;66.00
68380;BME280;57711;53.196;19.638;2023-01-04T03:10:11;101228.25;;;2.84;66.02
68380;BME280;57711;53.196;19.638;2023-01-04T03:12:46;101227.27;;;2.82;66.11
68380;BME280;57711;53.196;19.638;2023-01-04T03:15:22;101228.21;;;2.81;66.10
68380;BME280;57711;53.196;19.638;2023-01-04T03:18:06;101229.77;;;2.78;66.01
68380;BME280;57711;53.196;19.638;2023-01-04T03:20:35;101228.56;;;2.77;65.92
68380;BME280;57711;53.196;19.638;2023-01-04T03:23:05;101224.45;;;2.77;65.93
68380;BME280;57711;53.196;19.638;2023-01-04T03:25:56;101223.10;;;2.79;66.09
68380;BME280;57711;53.196;19.638;2023-01-04T03:28:44;101221.14;;;2.83;65.93
68380;BME280;57711;53.196;19.638;2023-01-04T03:31:42;101216.23;;;2.81;65.92
68380;BME280;57711;53.196;19.638;2023-01-04T03:34:29;101215.67;;;2.77;65.83
68380;BME280;57711;53.196;19.638;2023-01-04T03:37:19;101217.33;;;2.76;65.98
68380;BME280;57711;53.196;19.638;2023-01-04T03:45:42;101217.92;;;2.61;65.91
68380;BME280;57711;53.196;19.638;2023-01-04T03:48:41;101210.82;;;2.56;66.03
68380;BME280;57711;53.196;19.638;2023-01-04T03:51:17;101208.88;;;2.56;66.09
68380;BME280;57711;53.196;19.638;2023-01-04T03:56:27;101187.66;;;2.59;66.17
68380;BME280;57711;53.196;19.638;2023-01-04T03:58:55;101182.11;;;2.60;65.92
68380;BME280;57711;53.196;19.638;2023-01-04T04:01:24;101181.94;;;2.64;65.89
68380;BME280;57711;53.196;19.638;2023-01-04T04:03:53;101180.56;;;2.67;65.93
68380;BME280;57711;53.196;19.638;2023-01-04T04:06:39;101179.10;;;2.68;65.94
68380;BME280;57711;53.196;19.638;2023-01-04T04:09:25;101184.98;;;2.69;65.89
68380;BME280;57711;53.196;19.638;2023-01-04T04:11:53;101180.19;;;2.63;65.78
68380;BME280;57711;53.196;19.638;2023-01-04T04:14:20;101180.39;;;2.58;65.79
68380;BME280;57711;53.196;19.638;2023-01-04T04:16:47;101175.70;;;2.55;65.87
68380;BME280;57711;53.196;19.638;2023-01-04T04:19:14;101189.71;;;2.49;65.82
68380;BME280;57711;53.196;19.638;2023-01-04T04:21:41;101184.15;;;2.45;65.99
68380;BME280;57711;53.196;19.638;2023-01-04T04:24:16;101185.93;;;2.45;66.21
68380;BME280;57711;53.196;19.638;2023-01-04T04:26:44;101186.44;;;2.41;65.96
68380;BME280;57711;53.196;19.638;2023-01-04T04:29:11;101189.67;;;2.36;66.05
68380;BME280;57711;53.196;19.638;2023-01-04T04:31:38;101186.21;;;2.33;65.95
68380;BME280;57711;53.196;19.638;2023-01-04T04:34:06;101184.91;;;2.35;66.04
68380;BME280;57711;53.196;19.638;2023-01-04T04:36:33;101181.08;;;2.37;65.89
68380;BME280;57711;53.196;19.638;2023-01-04T04:39:01;101176.92;;;2.38;65.85
68380;BME280;57711;53.196;19.638;2023-01-04T04:41:28;101173.80;;;2.40;65.95
68380;BME280;57711;53.196;19.638;2023-01-04T04:44:15;101176.34;;;2.43;66.04
68380;BME280;57711;53.196;19.638;2023-01-04T04:46:43;101172.09;;;2.47;66.04
68380;BME280;57711;53.196;19.638;2023-01-04T04:49:11;101160.20;;;2.46;66.03
68380;BME280;57711;53.196;19.638;2023-01-04T04:51:43;101151.17;;;2.44;66.16
68380;BME280;57711;53.196;19.638;2023-01-04T04:54:15;101142.27;;;2.43;66.05
68380;BME280;57711;53.196;19.638;2023-01-04T04:56:43;101141.81;;;2.46;66.16
68380;BME280;57711;53.196;19.638;2023-01-04T04:59:10;101140.61;;;2.44;66.09
68380;BME280;57711;53.196;19.638;2023-01-04T05:01:37;101133.11;;;2.40;66.05
68380;BME280;57711;53.196;19.638;2023-01-04T05:04:05;101132.79;;;2.39;66.07
68380;BME280;57711;53.196;19.638;2023-01-04T05:06:33;101130.02;;;2.37;66.10
68380;BME280;57711;53.196;19.638;2023-01-04T05:09:00;101124.53;;;2.36;66.13
68380;BME280;57711;53.196;19.638;2023-01-04T05:11:27;101127.48;;;2.38;66.11
68380;BME280;57711;53.196;19.638;2023-01-04T05:14:13;101124.48;;;2.38;65.80
68380;BME280;57711;53.196;19.638;2023-01-04T05:16:40;101118.61;;;2.37;65.79
68380;BME280;57711;53.196;19.638;2023-01-04T05:19:08;101114.50;;;2.37;65.87
68380;BME280;57711;53.196;19.638;2023-01-04T05:21:35;101110.66;;;2.39;65.98
68380;BME280;57711;53.196;19.638;2023-01-04T05:24:02;101101.92;;;2.39;65.96
68380;BME280;57711;53.196;19.638;2023-01-04T05:26:30;101096.54;;;2.39;66.01
68380;BME280;57711;53.196;19.638;2023-01-04T05:28:57;101089.31;;;2.38;65.99
68380;BME280;57711;53.196;19.638;2023-01-04T05:31:25;101086.16;;;2.32;65.97
68380;BME280;57711;53.196;19.638;2023-01-04T05:33:52;101079.29;;;2.25;65.97
68380;BME280;57711;53.196;19.638;2023-01-04T05:36:19;101078.62;;;2.20;66.02
68380;BME280;57711;53.196;19.638;2023-01-04T05:38:46;101075.11;;;2.14;65.94
68380;BME280;57711;53.196;19.638;2023-01-04T05:41:14;101071.95;;;2.09;65.90
68380;BME280;57711;53.196;19.638;2023-01-04T05:44:00;101069.65;;;2.08;66.00
68380;BME280;57711;53.196;19.638;2023-01-04T05:46:27;101066.41;;;2.04;65.82
68380;BME280;57711;53.196;19.638;2023-01-04T05:48:54;101058.52;;;2.06;65.78
68380;BME280;57711;53.196;19.638;2023-01-04T05:51:22;101056.16;;;2.07;65.90
68380;BME280;57711;53.196;19.638;2023-01-04T05:53:49;101064.27;;;2.09;65.98
68380;BME280;57711;53.196;19.638;2023-01-04T05:56:16;101063.84;;;2.11;66.07
68380;BME280;57711;53.196;19.638;2023-01-04T05:58:43;101062.98;;;2.10;65.96
68380;BME280;57711;53.196;19.638;2023-01-04T06:01:10;101067.51;;;2.13;66.08
68380;BME280;57711;53.196;19.638;2023-01-04T06:03:38;101069.25;;;2.13;66.00
68380;BME280;57711;53.196;19.638;2023-01-04T06:06:06;101071.44;;;2.13;66.08
68380;BME280;57711;53.196;19.638;2023-01-04T06:08:33;101071.90;;;2.14;66.11
68380;BME280;57711;53.196;19.638;2023-01-04T06:11:00;101072.48;;;2.13;65.91
68380;BME280;57711;53.196;19.638;2023-01-04T06:13:27;101071.86;;;2.02;65.78
68380;BME280;57711;53.196;19.638;2023-01-04T06:15:54;101067.59;;;2.02;65.88
68380;BME280;57711;53.196;19.638;2023-01-04T06:18:22;101064.52;;;2.07;65.84
68380;BME280;57711;53.196;19.638;2023-01-04T06:20:50;101060.27;;;2.06;65.80
68380;BME280;57711;53.196;19.638;2023-01-04T06:23:17;101051.69;;;2.02;65.86
68380;BME280;57711;53.196;19.638;2023-01-04T06:25:44;101054.45;;;1.96;65.81
68380;BME280;57711;53.196;19.638;2023-01-04T06:28:12;101050.60;;;1.99;66.13
68380;BME280;57711;53.196;19.638;2023-01-04T06:30:39;101036.86;;;2.03;66.06
68380;BME280;57711;53.196;19.638;2023-01-04T06:33:06;101028.27;;;2.04;66.03
68380;BME280;57711;53.196;19.638;2023-01-04T06:35:33;101024.54;;;1.99;65.97
68380;BME280;57711;53.196;19.638;2023-01-04T06:38:01;101020.69;;;1.93;65.83
68380;BME280;57711;53.196;19.638;2023-01-04T06:40:29;101020.81;;;1.95;65.85
68380;BME280;57711;53.196;19.638;2023-01-04T06:42:56;101017.11;;;1.97;65.84
68380;BME280;57711;53.196;19.638;2023-01-04T06:45:23;101012.04;;;1.95;65.78
68380;BME280;57711;53.196;19.638;2023-01-04T06:47:50;101010.63;;;1.91;65.89
68380;BME280;57711;53.196;19.638;2023-01-04T06:50:17;101013.35;;;1.84;65.86
68380;BME280;57711;53.196;19.638;2023-01-04T06:52:45;101016.45;;;1.83;65.87
68380;BME280;57711;53.196;19.638;2023-01-04T06:55:12;101018.66;;;1.82;66.05
68380;BME280;57711;53.196;19.638;2023-01-04T06:57:39;101016.61;;;1.83;66.21
68380;BME280;57711;53.196;19.638;2023-01-04T07:00:06;101015.96;;;1.86;66.11
68380;BME280;57711;53.196;19.638;2023-01-04T07:02:34;101015.45;;;1.90;66.26
68380;BME280;57711;53.196;19.638;2023-01-04T07:05:02;101015.20;;;1.87;65.95
68380;BME280;57711;53.196;19.638;2023-01-04T07:07:31;101014.31;;;1.83;65.94
68380;BME280;57711;53.196;19.638;2023-01-04T07:09:58;101011.29;;;1.79;65.92
68380;BME280;57711;53.196;19.638;2023-01-04T07:12:33;101008.43;;;1.78;66.24
68380;BME280;57711;53.196;19.638;2023-01-04T07:15:00;101003.42;;;1.79;66.19
68380;BME280;57711;53.196;19.638;2023-01-04T07:17:49;100994.48;;;1.80;66.26
68380;BME280;57711;53.196;19.638;2023-01-04T07:20:16;100984.14;;;1.80;66.36
68380;BME280;57711;53.196;19.638;2023-01-04T07:22:43;100974.33;;;1.84;66.31
68380;BME280;57711;53.196;19.638;2023-01-04T07:25:10;100972.63;;;1.91;66.24
68380;BME280;57711;53.196;19.638;2023-01-04T07:27:38;100975.86;;;1.99;66.29
68380;BME280;57711;53.196;19.638;2023-01-04T07:30:05;100982.96;;;2.00;66.10
68380;BME280;57711;53.196;19.638;2023-01-04T07:32:33;100982.66;;;1.98;66.31
68380;BME280;57711;53.196;19.638;2023-01-04T07:35:00;100973.31;;;2.00;66.45
68380;BME280;57711;53.196;19.638;2023-01-04T07:37:27;100965.38;;;2.06;66.52
68380;BME280;57711;53.196;19.638;2023-01-04T07:39:55;100961.22;;;2.08;66.39
68380;BME280;57711;53.196;19.638;2023-01-04T07:42:22;100952.90;;;2.06;66.26
68380;BME280;57711;53.196;19.638;2023-01-04T07:44:49;100947.23;;;2.10;66.52
68380;BME280;57711;53.196;19.638;2023-01-04T07:47:16;100951.86;;;2.14;66.47
68380;BME280;57711;53.196;19.638;2023-01-04T07:49:43;100952.07;;;2.13;66.38
68380;BME280;57711;53.196;19.638;2023-01-04T07:52:15;100947.73;;;2.14;66.43
68380;BME280;57711;53.196;19.638;2023-01-04T07:54:42;100945.23;;;2.15;66.45
68380;BME280;57711;53.196;19.638;2023-01-04T07:57:09;100941.28;;;2.11;66.37
68380;BME280;57711;53.196;19.638;2023-01-04T07:59:36;100936.57;;;2.13;66.65
68380;BME280;57711;53.196;19.638;2023-01-04T08:02:04;100934.62;;;2.17;66.73
68380;BME280;57711;53.196;19.638;2023-01-04T08:04:31;100932.57;;;2.23;66.60
68380;BME280;57711;53.196;19.638;2023-01-04T08:07:01;100930.19;;;2.28;66.45
68380;BME280;57711;53.196;19.638;2023-01-04T08:09:29;100927.09;;;2.30;66.39
68380;BME280;57711;53.196;19.638;2023-01-04T08:11:56;100920.60;;;2.27;66.39
68380;BME280;57711;53.196;19.638;2023-01-04T08:14:23;100910.16;;;2.29;66.63
68380;BME280;57711;53.196;19.638;2023-01-04T08:16:50;100896.00;;;2.35;66.65
68380;BME280;57711;53.196;19.638;2023-01-04T08:19:20;100891.23;;;2.38;66.64
68380;BME280;57711;53.196;19.638;2023-01-04T08:21:47;100882.61;;;2.39;66.55
68380;BME280;57711;53.196;19.638;2023-01-04T08:24:17;100874.77;;;2.43;66.71
68380;BME280;57711;53.196;19.638;2023-01-04T08:26:44;100874.44;;;2.50;66.76
68380;BME280;57711;53.196;19.638;2023-01-04T08:29:12;100876.73;;;2.54;66.71
68380;BME280;57711;53.196;19.638;2023-01-04T08:31:40;100877.06;;;2.59;66.76
68380;BME280;57711;53.196;19.638;2023-01-04T08:34:08;100866.83;;;2.63;66.61
68380;BME280;57711;53.196;19.638;2023-01-04T08:36:44;100855.83;;;2.66;66.66
68380;BME280;57711;53.196;19.638;2023-01-04T08:39:12;100852.95;;;2.70;66.80
68380;BME280;57711;53.196;19.638;2023-01-04T08:41:39;100841.52;;;2.70;66.78
68380;BME280;57711;53.196;19.638;2023-01-04T08:44:30;100840.86;;;2.77;66.74
68380;BME280;57711;53.196;19.638;2023-01-04T08:47:00;100830.12;;;2.77;66.70
68380;BME280;57711;53.196;19.638;2023-01-04T08:49:28;100824.66;;;2.83;66.96
68380;BME280;57711;53.196;19.638;2023-01-04T08:51:55;100823.75;;;2.91;66.98
68380;BME280;57711;53.196;19.638;2023-01-04T08:54:22;100817.63;;;2.99;67.10
68380;BME280;57711;53.196;19.638;2023-01-04T08:56:50;100810.58;;;3.05;67.20
68380;BME280;57711;53.196;19.638;2023-01-04T08:59:17;100800.75;;;3.12;66.94
68380;BME280;57711;53.196;19.638;2023-01-04T09:01:44;100799.16;;;3.19;67.10
68380;BME280;57711;53.196;19.638;2023-01-04T09:04:12;100799.31;;;3.23;66.99
68380;BME280;57711;53.196;19.638;2023-01-04T09:06:39;100792.45;;;3.21;66.90
68380;BME280;57711;53.196;19.638;2023-01-04T09:09:07;100790.30;;;3.17;66.85
68380;BME280;57711;53.196;19.638;2023-01-04T09:11:36;100786.16;;;3.18;67.07
68380;BME280;57711;53.196;19.638;2023-01-04T09:14:03;100773.13;;;3.18;67.09
68380;BME280;57711;53.196;19.638;2023-01-04T09:16:35;100769.04;;;3.21;67.05
68380;BME280;57711;53.196;19.638;2023-01-04T09:19:03;100759.81;;;3.23;67.04
68380;BME280;57711;53.196;19.638;2023-01-04T09:21:31;100751.75;;;3.20;67.04
68380;BME280;57711;53.196;19.638;2023-01-04T09:23:58;100741.73;;;3.20;67.16
68380;BME280;57711;53.196;19.638;2023-01-04T09:26:26;100732.75;;;3.21;67.12
68380;BME280;57711;53.196;19.638;2023-01-04T09:28:54;100732.38;;;3.18;67.13
68380;BME280;57711;53.196;19.638;2023-01-04T09:31:24;100726.72;;;3.17;67.02
68380;BME280;57711;53.196;19.638;2023-01-04T09:33:52;100721.17;;;3.20;67.20
68380;BME280;57711;53.196;19.638;2023-01-04T09:36:40;100721.44;;;3.22;67.11
68380;BME280;57711;53.196;19.638;2023-01-04T09:39:07;100714.73;;;3.17;67.10
68380;BME280;57711;53.196;19.638;2023-01-04T09:47:16;100682.13;;;3.26;67.25
68380;BME280;57711;53.196;19.638;2023-01-04T09:49:49;100675.39;;;3.32;67.26
68380;BME280;57711;53.196;19.638;2023-01-04T09:52:24;100671.41;;;3.33;67.27
68380;BME280;57711;53.196;19.638;2023-01-04T09:54:54;100669.27;;;3.29;67.37
68380;BME280;57711;53.196;19.638;2023-01-04T09:58:11;100658.40;;;3.32;67.44
68380;BME280;57711;53.196;19.638;2023-01-04T10:00:44;100651.73;;;3.33;67.46
68380;BME280;57711;53.196;19.638;2023-01-04T10:03:19;100647.89;;;3.38;67.34
68380;BME280;57711;53.196;19.638;2023-01-04T10:05:49;100633.42;;;3.37;67.50
68380;BME280;57711;53.196;19.638;2023-01-04T10:08:18;100626.86;;;3.40;67.46
68380;BME280;57711;53.196;19.638;2023-01-04T10:11:33;100619.75;;;3.43;67.37
68380;BME280;57711;53.196;19.638;2023-01-04T10:25:59;100580.54;;;3.60;67.66
68380;BME280;57711;53.196;19.638;2023-01-04T10:34:31;100545.01;;;3.59;67.49
68380;BME280;57711;53.196;19.638;2023-01-04T10:37:03;100527.61;;;3.67;67.44
68380;BME280;57711;53.196;19.638;2023-01-04T10:39:37;100520.40;;;3.68;67.57
68380;BME280;57711;53.196;19.638;2023-01-04T10:42:14;100521.68;;;3.70;67.51
68380;BME280;57711;53.196;19.638;2023-01-04T10:47:16;100499.36;;;3.73;67.60
68380;BME280;57711;53.196;19.638;2023-01-04T10:49:55;100484.27;;;3.74;67.55
68380;BME280;57711;53.196;19.638;2023-01-04T10:52:35;100477.70;;;3.76;67.58
68380;BME280;57711;53.196;19.638;2023-01-04T10:55:11;100472.16;;;3.79;67.61
68380;BME280;57711;53.196;19.638;2023-01-04T10:57:51;100468.53;;;3.84;67.62
68380;BME280;57711;53.196;19.638;2023-01-04T11:00:29;100460.11;;;3.84;67.60
68380;BME280;57711;53.196;19.638;2023-01-04T11:05:47;100448.28;;;3.87;67.55
68380;BME280;57711;53.196;19.638;2023-01-04T11:08:36;100443.51;;;3.92;67.61
68380;BME280;57711;53.196;19.638;2023-01-04T11:11:11;100441.19;;;3.98;67.65
68380;BME280;57711;53.196;19.638;2023-01-04T11:13:40;100436.59;;;4.01;67.71
68380;BME280;57711;53.196;19.638;2023-01-04T11:16:07;100420.39;;;4.02;67.72
68380;BME280;57711;53.196;19.638;2023-01-04T11:18:36;100413.63;;;4.05;67.66
68380;BME280;57711;53.196;19.638;2023-01-04T11:21:07;100408.34;;;4.09;67.60
68380;BME280;57711;53.196;19.638;2023-01-04T11:23:35;100398.76;;;4.11;67.68
68380;BME280;57711;53.196;19.638;2023-01-04T11:26:11;100388.85;;;4.12;67.61
68380;BME280;57711;53.196;19.638;2023-01-04T11:29:05;100376.56;;;4.11;67.67
68380;BME280;57711;53.196;19.638;2023-01-04T11:31:49;100355.42;;;4.11;67.64
68380;BME280;57711;53.196;19.638;2023-01-04T11:34:42;100348.09;;;4.14;67.76
68380;BME280;57711;53.196;19.638;2023-01-04T11:37:27;100339.08;;;4.18;67.66
68380;BME280;57711;53.196;19.638;2023-01-04T11:42:46;100328.94;;;4.20;67.60
68380;BME280;57711;53.196;19.638;2023-01-04T11:45:25;100320.99;;;4.19;67.59
68380;BME280;57711;53.196;19.638;2023-01-04T11:47:55;100311.89;;;4.18;67.68
68380;BME280;57711;53.196;19.638;2023-01-04T11:53:32;100297.96;;;4.23;67.68
68380;BME280;57711;53.196;19.638;2023-01-04T11:56:19;100286.03;;;4.25;67.61
68380;BME280;57711;53.196;19.638;2023-01-04T11:59:14;100281.94;;;4.25;67.72
68380;BME280;57711;53.196;19.638;2023-01-04T12:02:10;100269.78;;;4.25;67.69
68380;BME280;57711;53.196;19.638;2023-01-04T12:04:42;100255.27;;;4.28;67.76
68380;BME280;57711;53.196;19.638;2023-01-04T12:07:34;100248.54;;;4.30;67.68
68380;BME280;57711;53.196;19.638;2023-01-04T12:10:20;100242.42;;;4.33;67.73
68380;BME280;57711;53.196;19.638;2023-01-04T12:12:47;100233.95;;;4.34;67.68
68380;BME280;57711;53.196;19.638;2023-01-04T12:15:25;100233.05;;;4.34;67.66
68380;BME280;57711;53.196;19.638;2023-01-04T12:18:14;100226.10;;;4.33;67.76
68380;BME280;57711;53.196;19.638;2023-01-04T12:20:43;100214.15;;;4.33;67.71
68380;BME280;57711;53.196;19.638;2023-01-04T12:23:12;100207.11;;;4.33;67.66
68380;BME280;57711;53.196;19.638;2023-01-04T12:25:44;100192.45;;;4.36;67.80
68380;BME280;57711;53.196;19.638;2023-01-04T12:28:33;100180.95;;;4.37;67.76
68380;BME280;57711;53.196;19.638;2023-01-04T12:33:49;100173.82;;;4.36;67.79
68380;BME280;57711;53.196;19.638;2023-01-04T12:36:20;100173.60;;;4.37;67.87
68380;BME280;57711;53.196;19.638;2023-01-04T12:50:27;100137.77;;;4.40;67.84
68380;BME280;57711;53.196;19.638;2023-01-04T12:53:01;100128.28;;;4.40;67.87
68380;BME280;57711;53.196;19.638;2023-01-04T12:55:52;100120.15;;;4.41;67.80
68380;BME280;57711;53.196;19.638;2023-01-04T13:01:23;100111.91;;;4.44;67.85
68380;BME280;57711;53.196;19.638;2023-01-04T13:03:55;100106.83;;;4.43;67.83
68380;BME280;57711;53.196;19.638;2023-01-04T13:06:34;100096.04;;;4.40;67.76
68380;BME280;57711;53.196;19.638;2023-01-04T13:09:17;100088.37;;;4.40;67.79
68380;BME280;57711;53.196;19.638;2023-01-04T13:14:49;100066.01;;;4.43;68.08
68380;BME280;57711;53.196;19.638;2023-01-04T13:17:21;100060.40;;;4.41;67.98
68380;BME280;57711;53.196;19.638;2023-01-04T13:19:49;100044.52;;;4.40;67.95
68380;BME280;57711;53.196;19.638;2023-01-04T13:22:26;100021.77;;;4.43;67.90
68380;BME280;57711;53.196;19.638;2023-01-04T13:24:57;100006.05;;;4.45;68.00
68380;BME280;57711;53.196;19.638;2023-01-04T13:27:26;99986.23;;;4.47;68.01
68380;BME280;57711;53.196;19.638;2023-01-04T13:29:53;99978.80;;;4.48;68.14
68380;BME280;57711;53.196;19.638;2023-01-04T13:32:29;99969.26;;;4.49;68.14
68380;BME280;57711;53.196;19.638;2023-01-04T13:35:19;99961.39;;;4.48;68.17
68380;BME280;57711;53.196;19.638;2023-01-04T13:37:48;99959.39;;;4.49;68.04
68380;BME280;57711;53.196;19.638;2023-01-04T13:40:29;99963.71;;;4.49;68.03
68380;BME280;57711;53.196;19.638;2023-01-04T13:48:13;99937.78;;;4.46;68.27
68380;BME280;57711;53.196;19.638;2023-01-04T13:50:43;99933.45;;;4.49;68.18
68380;BME280;57711;53.196;19.638;2023-01-04T13:53:21;99923.21;;;4.52;68.05
68380;BME280;57711;53.196;19.638;2023-01-04T13:55:51;99909.45;;;4.52;68.21
68380;BME280;57711;53.196;19.638;2023-01-04T13:58:24;99911.04;;;4.52;68.20
68380;BME280;57711;53.196;19.638;2023-01-04T14:01:05;99901.70;;;4.52;68.18
68380;BME280;57711;53.196;19.638;2023-01-04T14:08:45;99882.90;;;4.50;68.31
68380;BME280;57711;53.196;19.638;2023-01-04T14:11:21;99871.90;;;4.51;68.35
68380;BME280;57711;53.196;19.638;2023-01-04T14:14:25;99865.46;;;4.53;68.33
68380;BME280;57711;53.196;19.638;2023-01-04T14:20:02;99845.81;;;4.53;68.37
68380;BME280;57711;53.196;19.638;2023-01-04T14:30:53;99812.93;;;4.57;68.35
68380;BME280;57711;53.196;19.638;2023-01-04T14:38:38;99797.12;;;4.63;68.28
68380;BME280;57711;53.196;19.638;2023-01-04T14:43:51;99796.09;;;4.60;68.50
68380;BME280;57711;53.196;19.638;2023-01-04T14:46:22;99789.33;;;4.59;68.42
68380;BME280;57711;53.196;19.638;2023-01-04T14:48:49;99787.27;;;4.58;68.33
68380;BME280;57711;53.196;19.638;2023-01-04T14:51:22;99781.66;;;4.57;68.60
68380;BME280;57711;53.196;19.638;2023-01-04T14:53:51;99775.90;;;4.54;68.52
68380;BME280;57711;53.196;19.638;2023-01-04T14:56:20;99768.84;;;4.53;68.50
68380;BME280;57711;53.196;19.638;2023-01-04T14:58:48;99767.07;;;4.52;68.60
68380;BME280;57711;53.196;19.638;2023-01-04T15:01:15;99762.87;;;4.51;68.53
68380;BME280;57711;53.196;19.638;2023-01-04T15:03:42;99754.56;;;4.50;68.75
68380;BME280;57711;53.196;19.638;2023-01-04T15:06:10;99750.86;;;4.49;68.67
68380;BME280;57711;53.196;19.638;2023-01-04T15:08:38;99747.11;;;4.48;68.64
68380;BME280;57711;53.196;19.638;2023-01-04T15:11:05;99735.61;;;4.47;68.88
68380;BME280;57711;53.196;19.638;2023-01-04T15:13:32;99732.31;;;4.45;68.79
68380;BME280;57711;53.196;19.638;2023-01-04T15:16:10;99726.00;;;4.43;68.86
68380;BME280;57711;53.196;19.638;2023-01-04T15:18:39;99716.46;;;4.42;68.86